WTN weather

RAF Waddington
Waddington, England, United Kingdom

Public forecast

Using degrees Celsius for public forecast. Weather courtesy of forecast.io.

METAR (pilot weather report)

Retrieved 2019/04/19 15:50 UTC (29 minutes ago):

EGXW 191550Z 08010KT CAVOK 20/06 Q1030 BLU NOSIG

TAF (pilot weather forecast)

Retrieved 2019/04/19 15:36 UTC (43 minutes ago):

TAF EGXW 191319Z 1915/2009 08010KT CAVOK PROB40 1921/1924 6000 HZ BECMG 2000/2002 5000 HZ PROB30 2002/2006 3000 BR BECMG 2007/2009 9999 NSW